Time;durP1;ratioP1;P1;durP2;ratioP2;P2;SDS_P1;SDS_P2;PMS_P1;PMS_P2;Temp;Humidity;BMP_temperature;BMP_pressure;BME280_temperature;BME280_humidity;BME280_pressure;Samples;Min_cycle;Max_cycle;Signal;HPM_P1;HPM_P2
2021/03/25 00:01:50;;;;;;;9.55;6.92;;;;;;;-0.91;59.65;100440.52;1806568;79;20922;-71
2021/03/25 00:04:19;;;;;;;9.13;6.65;;;;;;;-0.91;59.64;100446.48;1806587;79;22303;-70
2021/03/25 00:06:51;;;;;;;9.95;6.25;;;;;;;-0.94;59.60;100436.69;1806469;79;21001;-72
2021/03/25 00:09:23;;;;;;;8.33;6.22;;;;;;;-0.95;59.55;100433.28;1806481;79;20998;-71
2021/03/25 00:11:52;;;;;;;7.25;5.65;;;;;;;-0.96;59.60;100430.73;1804601;79;20887;-71
2021/03/25 00:14:23;;;;;;;9.23;6.35;;;;;;;-0.97;59.58;100422.64;1806621;79;21495;-70
2021/03/25 00:16:52;;;;;;;9.05;6.15;;;;;;;-0.98;59.53;100432.44;1806432;79;21430;-70
2021/03/25 00:19:22;;;;;;;7.62;5.90;;;;;;;-0.99;59.54;100422.64;1806530;79;21496;-70
2021/03/25 00:21:51;;;;;;;8.85;6.65;;;;;;;-0.99;59.58;100425.20;1806488;79;20919;-72
2021/03/25 00:24:22;;;;;;;9.55;6.37;;;;;;;-1.00;59.53;100423.50;1806510;79;20914;-71
2021/03/25 00:26:50;;;;;;;8.35;6.12;;;;;;;-1.02;59.58;100418.39;1806498;79;20910;-71
2021/03/25 00:29:19;;;;;;;8.20;5.58;;;;;;;-1.02;59.62;100420.09;1806461;79;21227;-70
2021/03/25 00:31:49;;;;;;;10.25;6.30;;;;;;;-1.04;59.50;100417.55;1806679;79;21440;-70
2021/03/25 00:34:17;;;;;;;6.03;5.42;;;;;;;-1.04;59.57;100416.27;1806878;79;21535;-70
2021/03/25 00:36:47;;;;;;;7.42;5.22;;;;;;;-1.04;59.59;100416.27;1806791;79;21021;-70
2021/03/25 00:39:16;;;;;;;9.13;6.25;;;;;;;-1.04;59.60;100413.70;1807002;79;20973;-70
2021/03/25 00:41:45;;;;;;;9.63;5.78;;;;;;;-1.04;59.62;100412.86;1806899;79;21675;-71
2021/03/25 00:44:13;;;;;;;8.93;5.70;;;;;;;-1.06;59.69;100414.56;1807018;79;20938;-71
2021/03/25 00:46:42;;;;;;;8.33;6.17;;;;;;;-1.07;59.79;100419.25;1806927;79;20871;-72
2021/03/25 00:49:14;;;;;;;8.15;5.72;;;;;;;-1.07;59.80;100411.59;1811786;78;21005;-71
2021/03/25 00:51:42;;;;;;;8.65;5.50;;;;;;;-1.08;59.87;100413.30;1824551;78;21084;-70
2021/03/25 00:54:12;;;;;;;9.45;6.25;;;;;;;-1.09;60.00;100414.14;1824270;78;22068;-70
2021/03/25 00:56:40;;;;;;;11.30;6.67;;;;;;;-1.11;60.03;100415.00;1824180;78;20930;-70
2021/03/25 00:59:09;;;;;;;11.48;7.45;;;;;;;-1.15;60.09;100414.58;1824194;78;21021;-70
2021/03/25 01:01:37;;;;;;;11.90;7.30;;;;;;;-1.18;60.20;100413.31;1824245;78;20989;-69
2021/03/25 01:04:06;;;;;;;8.90;6.75;;;;;;;-1.21;60.37;100407.81;1824229;78;21448;-71
2021/03/25 01:06:36;;;;;;;8.43;6.00;;;;;;;-1.23;60.46;100414.63;1824227;78;21758;-70
2021/03/25 01:09:20;;;;;;;9.23;6.53;;;;;;;-1.25;60.54;100416.77;1824086;78;21381;-70
2021/03/25 01:11:50;;;;;;;10.95;6.95;;;;;;;-1.26;60.70;100416.34;1824283;78;20930;-70
2021/03/25 01:14:22;;;;;;;9.93;6.95;;;;;;;-1.28;60.72;100411.66;1824189;78;20972;-70
2021/03/25 01:16:52;;;;;;;10.32;6.62;;;;;;;-1.30;60.73;100414.22;1824231;78;21064;-70
2021/03/25 01:19:30;;;;;;;8.58;6.05;;;;;;;-1.31;60.73;100418.90;1824257;78;21189;-70
2021/03/25 01:21:59;;;;;;;7.60;5.85;;;;;;;-1.32;60.81;100412.52;1824122;78;20969;-70
2021/03/25 01:24:29;;;;;;;8.73;5.75;;;;;;;-1.37;61.13;100421.46;1795314;78;20997;-69
2021/03/25 01:26:57;;;;;;;9.43;6.20;;;;;;;-1.41;61.52;100415.50;1824168;78;20993;-70
2021/03/25 01:29:26;;;;;;;7.35;6.00;;;;;;;-1.44;61.81;100417.20;1824115;78;20977;-69
2021/03/25 01:31:56;;;;;;;9.93;6.30;;;;;;;-1.49;62.14;100414.66;1824186;78;21192;-70
2021/03/25 01:34:26;;;;;;;9.10;6.33;;;;;;;-1.53;62.44;100419.34;1824280;78;21055;-70
2021/03/25 01:36:58;;;;;;;10.63;6.33;;;;;;;-1.56;62.57;100416.79;1824184;78;20970;-70
2021/03/25 01:39:30;;;;;;;8.15;6.12;;;;;;;-1.58;62.71;100410.83;1824214;78;20962;-70
2021/03/25 01:41:58;;;;;;;11.60;7.05;;;;;;;-1.59;62.86;100409.55;1824200;78;20933;-70
2021/03/25 01:44:38;;;;;;;8.53;6.08;;;;;;;-1.59;62.95;100415.94;1824206;78;21190;-71
2021/03/25 01:47:09;;;;;;;10.10;6.10;;;;;;;-1.62;62.97;100409.59;1823956;78;21043;-72
2021/03/25 01:49:41;;;;;;;8.68;6.62;;;;;;;-1.64;62.98;100414.69;1791311;79;21480;-72
2021/03/25 01:52:39;;;;;;;9.58;6.03;;;;;;;-1.67;62.96;100406.18;1812326;79;20977;-73
2021/03/25 01:55:42;;;;;;;11.33;7.00;;;;;;;-1.70;62.95;100413.41;1812436;78;21069;-71
2021/03/25 01:58:41;;;;;;;8.58;6.17;;;;;;;-1.74;63.01;100407.88;1812320;78;21176;-71
2021/03/25 02:01:20;;;;;;;9.45;5.95;;;;;;;-1.78;62.99;100415.97;1812483;79;20993;-70
2021/03/25 02:04:16;;;;;;;8.88;6.20;;;;;;;-1.80;63.04;100412.98;1812405;79;20942;-70
2021/03/25 02:07:09;;;;;;;8.48;5.60;;;;;;;-1.81;63.04;100416.39;1812369;79;21009;-71
2021/03/25 02:09:43;;;;;;;8.38;7.10;;;;;;;-1.83;63.00;100419.36;1812349;79;21143;-71
2021/03/25 02:12:46;;;;;;;7.78;5.58;;;;;;;-1.86;63.00;100415.11;1808378;79;21193;-70
2021/03/25 02:15:24;;;;;;;;;;;;;;;-1.89;63.07;100415.53;1782996;79;21020;-70
2021/03/25 02:17:57;;;;;;;7.20;5.53;;;;;;;-1.93;63.06;100410.84;1812597;79;20375;-70
2021/03/25 02:21:01;;;;;;;7.58;5.67;;;;;;;-1.95;63.07;100411.69;1802023;79;21535;-70
2021/03/25 02:24:03;;;;;;;7.70;5.67;;;;;;;-1.97;63.03;100407.02;1812611;79;22229;-70
2021/03/25 02:26:41;;;;;;;7.55;5.40;;;;;;;-1.99;63.09;100410.84;1785778;79;21101;-71
2021/03/25 02:29:38;;;;;;;8.00;5.90;;;;;;;-2.00;63.14;100408.31;1812362;78;20990;-70
2021/03/25 02:32:14;;;;;;;8.95;5.70;;;;;;;-2.00;63.06;100408.31;1814059;79;21009;-70
2021/03/25 02:34:47;;;;;;;;;;;;;;;-2.02;63.03;100409.59;1783913;79;21902;-71
2021/03/25 02:37:27;;;;;;;;;;;;;;;-2.04;63.13;100411.29;1783706;79;20515;-70
2021/03/25 02:40:09;;;;;;;;;;;;;;;-2.03;63.23;100413.84;1815262;78;21173;-70
2021/03/25 02:42:47;;;;;;;;;;;;;;;-2.06;63.37;100407.46;1814956;79;20148;-71
2021/03/25 02:45:22;;;;;;;;;;;;;;;-2.06;63.42;100415.11;1815323;78;20145;-70
2021/03/25 02:47:52;;;;;;;;;;;;;;;-2.07;63.45;100413.41;1783846;79;20515;-71
2021/03/25 02:50:25;;;;;;;;;;;;;;;-2.09;63.54;100414.26;1819679;78;20129;-71
2021/03/25 02:52:55;;;;;;;;;;;;;;;-2.10;63.63;100414.68;1824534;78;22083;-70
2021/03/25 02:55:25;;;;;;;;;;;;;;;-2.11;63.70;100417.23;1824573;78;20511;-70
2021/03/25 02:57:58;;;;;;;;;;;;;;;-2.13;63.80;100417.22;1795908;78;20252;-70
2021/03/25 03:00:37;;;;;;;;;;;;;;;-2.13;63.89;100418.92;1823191;78;20136;-71
2021/03/25 03:03:21;;;;;;;;;;;;;;;-2.14;63.92;100419.77;1824495;78;20133;-70
2021/03/25 03:05:55;;;;;;;;;;;;;;;-2.17;64.02;100414.66;1820159;78;22243;-70
2021/03/25 03:08:28;;;;;;;;;;;;;;;-2.18;64.13;100415.52;1824362;78;20113;-70
2021/03/25 03:11:13;;;;;;;;;;;;;;;-2.20;64.15;100420.61;1824396;78;20526;-70
2021/03/25 03:13:51;;;;;;;;;;;;;;;-2.23;64.24;100423.16;1824441;78;20148;-71
2021/03/25 03:16:25;;;;;;;;;;;;;;;-2.23;64.32;100415.50;1793030;78;20156;-71
2021/03/25 03:18:59;;;;;;;;;;;;;;;-2.24;64.31;100415.08;1824357;78;21349;-71
2021/03/25 03:21:41;;;;;;;;;;;;;;;-2.25;64.36;100413.80;1794841;78;20145;-72
2021/03/25 03:24:12;;;;;;;;;;;;;;;-2.25;64.34;100415.07;1784500;78;20149;-72
2021/03/25 03:26:50;;;;;;;;;;;;;;;-2.28;64.31;100411.23;1822745;78;20154;-72
2021/03/25 03:29:19;;;;;;;;;;;;;;;-2.30;64.38;100410.38;1824366;78;20153;-72
2021/03/25 03:31:57;;;;;;;;;;;;;;;-2.31;64.40;100406.13;1770017;78;21380;-71
2021/03/25 03:34:37;;;;;;;;;;;;;;;-2.35;64.37;100408.67;1821982;78;20133;-70
2021/03/25 03:37:15;;;;;;;;;;;;;;;-2.37;64.36;100412.06;1794736;78;20149;-70
2021/03/25 03:39:45;;;;;;;;;;;;;;;-2.38;64.46;100410.36;1824216;78;20533;-70
2021/03/25 03:42:17;;;;;;;;;;;;;;;-2.40;64.54;100409.53;1824592;78;20183;-70
2021/03/25 03:44:49;;;;;;;;;;;;;;;-2.44;64.62;100399.75;1824410;78;20105;-70
2021/03/25 03:47:21;;;;;;;;;;;;;;;-2.44;64.70;100409.09;1824342;78;20647;-70
2021/03/25 03:49:52;;;;;;;;;;;;;;;-2.45;64.84;100411.22;1824230;78;20472;-71
2021/03/25 03:52:32;;;;;;;;;;;;;;;-2.46;65.00;100411.64;1794925;78;20137;-71
2021/03/25 03:55:05;;;;;;;;;;;;;;;-2.46;65.09;100409.52;1824484;78;20131;-71
2021/03/25 03:57:53;;;;;;;;;;;;;;;-2.47;65.17;100407.81;1824514;78;20761;-72
2021/03/25 04:00:32;;;;;;;;;;;;;;;-2.49;65.26;100403.98;1824430;78;20148;-71
2021/03/25 04:03:15;;;;;;;;;;;;;;;-2.50;65.42;100407.38;1824437;78;20129;-71
2021/03/25 04:06:05;;;;;;;;;;;;;;;-2.49;65.43;100407.81;1824349;78;20128;-71
2021/03/25 04:08:41;;;;;;;;;;;;;;;-2.48;65.41;100409.52;1822427;78;20201;-71
2021/03/25 04:11:24;;;;;;;;;;;;;;;-2.47;65.41;100403.98;1823876;78;21392;-71
2021/03/25 04:14:00;;;;;;;;;;;;;;;-2.45;65.38;100415.05;1824278;78;20204;-70
2021/03/25 04:16:32;;;;;;;;;;;;;;;-2.42;65.32;100418.88;1824472;78;20109;-71
2021/03/25 04:19:21;;;;;;;;;;;;;;;-2.40;65.24;100419.73;1824308;78;20145;-71
2021/03/25 04:22:03;;;;;;;;;;;;;;;-2.36;65.20;100422.27;1816225;78;20113;-70
2021/03/25 04:24:37;;;;;;;;;;;;;;;-2.29;65.15;100428.23;1824435;78;21254;-70
2021/03/25 04:27:15;;;;;;;;;;;;;;;-2.24;65.04;100431.66;1824319;78;20537;-69
2021/03/25 04:29:54;;;;;;;;;;;;;;;-2.20;64.98;100429.54;1824235;78;20129;-70
2021/03/25 04:32:23;;;;;;;;;;;;;;;-2.14;64.88;100430.83;1824293;78;20129;-71
2021/03/25 04:34:51;;;;;;;;;;;;;;;-2.06;64.82;100424.05;1824375;78;20462;-70
2021/03/25 04:37:24;;;;;;;;;;;;;;;-1.93;64.75;100430.41;1824481;78;20733;-70
2021/03/25 04:39:53;;;;;;;7.00;5.53;;;;;;;-1.77;64.71;100433.41;1821582;78;20539;-70
2021/03/25 04:42:22;;;;;;;6.47;5.30;;;;;;;-1.58;64.56;100429.98;1821605;78;20957;-69
2021/03/25 04:44:57;;;;;;;7.12;5.55;;;;;;;-1.26;64.17;100430.39;1821654;78;21040;-70
2021/03/25 04:47:31;;;;;;;8.95;5.47;;;;;;;-0.90;63.56;100427.73;1793992;78;21084;-71
2021/03/25 04:50:16;;;;;;;8.10;5.35;;;;;;;-0.49;63.11;100430.55;1821475;78;22337;-70
2021/03/25 04:52:45;;;;;;;11.75;6.22;;;;;;;-0.07;61.48;100423.89;1781751;78;20949;-72
2021/03/25 04:55:21;;;;;;;12.95;6.03;;;;;;;0.37;60.60;100425.27;1792893;78;21012;-70
2021/03/25 04:57:59;;;;;;;;;;;;;;;0.85;59.27;100426.48;1824305;78;20997;-71
2021/03/25 05:00:35;;;;;;;12.73;5.33;;;;;;;1.32;57.70;100428.95;1821700;78;20109;-71
2021/03/25 05:03:06;;;;;;;6.65;4.92;;;;;;;1.66;56.60;100428.92;1821630;78;22181;-69
2021/03/25 05:05:35;;;;;;;6.90;5.05;;;;;;;2.04;55.59;100433.09;1821594;78;20954;-70
2021/03/25 05:08:07;;;;;;;4.97;4.45;;;;;;;2.38;54.46;100425.29;1792860;78;20941;-71
2021/03/25 05:10:43;;;;;;;4.72;4.20;;;;;;;2.68;53.45;100425.20;1821563;78;21072;-70
2021/03/25 05:13:37;;;;;;;6.72;4.65;;;;;;;2.95;52.47;100427.69;1821679;78;20954;-70
2021/03/25 05:16:26;;;;;;;5.20;4.55;;;;;;;3.18;51.52;100424.69;1821568;78;21369;-69
2021/03/25 05:19:18;;;;;;;11.80;6.40;;;;;;;3.40;50.84;100419.94;1821531;78;21045;-69
2021/03/25 05:22:06;;;;;;;12.03;7.15;;;;;;;3.52;50.15;100423.11;1792982;78;21423;-70
2021/03/25 05:24:47;;;;;;;12.23;7.60;;;;;;;3.64;49.68;100424.56;1821742;78;20898;-70
2021/03/25 05:27:36;;;;;;;16.40;7.28;;;;;;;3.81;49.89;100421.19;1821705;78;21028;-71
2021/03/25 05:30:09;;;;;;;13.48;7.17;;;;;;;4.05;48.71;100428.78;1821563;78;21403;-70
2021/03/25 05:32:40;;;;;;;10.65;5.78;;;;;;;4.15;47.77;100426.40;1821505;78;21025;-67
2021/03/25 05:35:16;;;;;;;9.38;5.60;;;;;;;4.11;47.25;100422.20;1821621;78;20914;-72
2021/03/25 05:37:46;;;;;;;8.18;4.67;;;;;;;4.11;47.35;100435.08;1821509;78;21032;-70
2021/03/25 05:40:26;;;;;;;7.95;5.08;;;;;;;4.18;47.16;100430.20;1801889;78;21023;-70
2021/03/25 05:43:57;;;;;;;8.53;4.83;;;;;;;4.29;46.71;100429.95;1848293;76;22781;-71
2021/03/25 05:46:31;;;;;;;8.28;5.00;;;;;;;4.21;46.45;100433.99;1818309;78;21574;-70
2021/03/25 05:49:16;;;;;;;7.15;5.15;;;;;;;4.12;46.37;100434.64;1818162;79;21532;-71
2021/03/25 05:52:09;;;;;;;9.48;4.40;;;;;;;4.02;46.73;100439.16;1801812;77;21009;-71
2021/03/25 05:54:53;;;;;;;7.90;4.60;;;;;;;3.90;47.11;100445.89;1802469;77;21606;-70
2021/03/25 05:57:47;;;;;;;6.62;4.50;;;;;;;3.75;47.09;100456.08;1805710;77;21033;-72
2021/03/25 06:00:27;;;;;;;8.03;4.85;;;;;;;3.58;47.77;100455.61;1806806;77;21681;-71
2021/03/25 06:03:04;;;;;;;7.22;4.78;;;;;;;3.42;48.10;100460.22;1819488;77;21259;-71
2021/03/25 06:05:34;;;;;;;5.92;4.67;;;;;;;3.29;48.28;100455.74;1797947;77;20985;-72
2021/03/25 06:08:29;;;;;;;5.72;4.65;;;;;;;3.20;48.56;100466.68;1815686;77;21013;-71
2021/03/25 06:11:30;;;;;;;8.10;4.53;;;;;;;3.11;48.36;100462.98;1793446;77;21014;-73
2021/03/25 06:14:29;;;;;;;7.20;4.45;;;;;;;3.06;48.39;100457.08;1792367;77;21025;-73
2021/03/25 06:17:33;;;;;;;5.90;4.55;;;;;;;2.99;48.37;100461.48;1791522;77;21665;-72
2021/03/25 06:20:17;;;;;;;22.82;7.53;;;;;;;2.96;48.42;100461.54;1749609;79;21068;-72
2021/03/25 06:23:11;;;;;;;11.57;6.70;;;;;;;2.94;49.21;100462.84;1790620;79;21045;-68
2021/03/25 06:26:21;;;;;;;6.53;4.78;;;;;;;2.98;49.43;100465.78;1735491;81;21702;-73
2021/03/25 06:28:53;;;;;;;6.42;4.95;;;;;;;3.05;49.31;100469.53;1740899;81;21070;-71
2021/03/25 06:31:30;;;;;;;6.35;4.35;;;;;;;3.09;49.05;100475.88;1732409;81;21277;-69
2021/03/25 06:34:07;;;;;;;8.58;4.80;;;;;;;3.09;48.74;100467.31;1783475;79;21557;-71
2021/03/25 06:37:20;;;;;;;12.03;5.00;;;;;;;3.09;49.26;100473.30;1775604;79;21108;-70
2021/03/25 06:40:22;;;;;;;7.45;4.00;;;;;;;3.14;49.53;100474.52;1784560;79;21713;-69
2021/03/25 06:43:22;;;;;;;5.55;3.72;;;;;;;3.21;49.32;100470.91;1811092;78;21009;-70
2021/03/25 06:46:19;;;;;;;5.25;4.12;;;;;;;3.26;49.15;100466.09;1819500;77;21362;-71
2021/03/25 06:48:54;;;;;;;7.00;4.12;;;;;;;3.33;49.33;100468.11;1810104;78;21788;-71
2021/03/25 06:51:30;;;;;;;11.07;5.67;;;;;;;3.41;48.85;100462.38;1792501;78;21056;-71
2021/03/25 06:54:20;;;;;;;6.35;4.25;;;;;;;3.49;48.65;100467.37;1789321;78;21257;-71
2021/03/25 06:56:51;;;;;;;6.10;4.00;;;;;;;3.59;47.70;100464.59;1790540;78;20997;-71
2021/03/25 06:59:35;;;;;;;6.60;4.10;;;;;;;3.73;47.41;100465.57;1788911;78;21183;-69
2021/03/25 07:02:18;;;;;;;8.20;4.53;;;;;;;3.91;47.49;100466.91;1817927;77;22038;-69
2021/03/25 07:04:50;;;;;;;6.37;4.45;;;;;;;4.19;47.39;100465.84;1748745;81;21660;-71
2021/03/25 07:07:35;;;;;;;5.85;4.08;;;;;;;4.52;46.61;100466.76;1800882;78;21693;-70
2021/03/25 07:10:07;;;;;;;7.50;3.95;;;;;;;4.80;46.23;100465.17;1796650;77;21094;-71
2021/03/25 07:12:43;;;;;;;7.78;4.90;;;;;;;5.09;45.03;100470.87;1788433;78;21076;-70
2021/03/25 07:15:25;;;;;;;4.42;3.72;;;;;;;5.39;44.82;100464.47;1794429;78;21290;-68
2021/03/25 07:17:56;;;;;;;7.47;4.40;;;;;;;5.68;43.02;100461.89;1795665;78;21083;-73
2021/03/25 07:20:34;;;;;;;6.72;3.90;;;;;;;5.80;43.04;100468.44;1805623;78;21341;-70
2021/03/25 07:23:12;;;;;;;5.97;3.77;;;;;;;5.99;42.41;100461.87;1804614;78;21172;-71
2021/03/25 07:25:43;;;;;;;7.42;4.20;;;;;;;6.13;41.42;100469.18;1818948;78;22163;-68
2021/03/25 07:28:19;;;;;;;6.40;4.00;;;;;;;6.19;42.14;100465.11;1819029;78;21088;-68
2021/03/25 07:30:51;;;;;;;4.08;3.45;;;;;;;6.42;41.34;100467.80;1792231;78;21095;-67
2021/03/25 07:33:26;;;;;;;4.08;3.35;;;;;;;6.58;40.24;100462.54;1800046;78;21088;-73
2021/03/25 07:36:11;;;;;;;4.42;3.25;;;;;;;6.66;40.64;100461.00;1765186;78;21005;-69
2021/03/25 07:38:41;;;;;;;5.03;3.90;;;;;;;6.89;39.81;100456.33;1799944;78;21357;-70
2021/03/25 07:41:20;;;;;;;6.72;3.70;;;;;;;7.02;39.50;100457.60;1799917;78;21290;-73
2021/03/25 07:43:53;;;;;;;6.35;3.67;;;;;;;7.10;39.75;100455.59;1757954;80;21145;-70
2021/03/25 07:46:46;;;;;;;5.47;3.60;;;;;;;7.26;38.95;100449.40;1755167;79;21040;-70
2021/03/25 07:49:18;;;;;;;7.10;4.03;;;;;;;7.36;37.96;100445.59;1726235;82;20977;-72
2021/03/25 07:52:06;;;;;;;5.75;3.80;;;;;;;7.36;38.13;100451.61;1714540;82;21064;-70
2021/03/25 07:54:39;;;;;;;4.22;3.50;;;;;;;7.44;37.09;100447.91;1704702;82;21743;-72
2021/03/25 07:57:23;;;;;;;4.85;3.22;;;;;;;7.49;37.64;100445.98;1710309;82;21519;-72
2021/03/25 08:00:00;;;;;;;4.75;3.62;;;;;;;7.58;37.53;100450.84;1712342;82;21088;-72
2021/03/25 08:02:36;;;;;;;4.70;3.00;;;;;;;7.56;36.94;100447.01;1691156;82;21125;-72
2021/03/25 08:05:32;;;;;;;3.80;3.20;;;;;;;7.62;36.18;100444.16;1714259;82;21225;-72
2021/03/25 08:08:09;;;;;;;4.00;3.22;;;;;;;7.68;35.60;100447.83;1712810;82;21104;-71
2021/03/25 08:10:45;;;;;;;4.97;3.27;;;;;;;7.71;35.38;100446.86;1717884;81;21604;-69
2021/03/25 08:13:22;;;;;;;4.53;3.60;;;;;;;7.70;34.78;100445.17;1710828;82;21665;-73
2021/03/25 08:16:08;;;;;;;4.40;3.20;;;;;;;7.67;35.20;100442.24;1671536;84;21142;-69
2021/03/25 08:19:01;;;;;;;7.22;3.22;;;;;;;7.72;35.25;100442.53;1721099;81;21041;-68
2021/03/25 08:21:57;;;;;;;4.12;2.80;;;;;;;7.78;34.83;100447.48;1718435;82;21068;-68
2021/03/25 08:24:55;;;;;;;3.37;2.60;;;;;;;7.72;34.11;100447.26;1709360;83;21013;-70
2021/03/25 08:27:50;;;;;;;2.67;2.47;;;;;;;7.70;33.93;100442.58;1709368;81;21092;-68
2021/03/25 08:30:50;;;;;;;3.77;3.02;;;;;;;7.70;33.25;100436.95;1712276;83;21034;-69
2021/03/25 08:33:33;;;;;;;3.52;3.17;;;;;;;7.72;33.37;100435.59;1708353;83;22410;-69
2021/03/25 08:36:23;;;;;;;5.45;3.77;;;;;;;7.73;33.39;100429.96;1710843;83;21833;-72
2021/03/25 08:39:09;;;;;;;3.90;3.50;;;;;;;7.73;33.80;100439.88;1705999;83;21108;-71
2021/03/25 08:41:52;;;;;;;3.58;3.25;;;;;;;7.76;34.33;100436.33;1708974;80;21073;-72
2021/03/25 08:44:45;;;;;;;4.15;3.27;;;;;;;7.85;32.93;100435.53;1788049;79;21639;-69
2021/03/25 08:47:54;;;;;;;6.10;3.95;;;;;;;8.02;33.38;100432.26;1792325;77;21714;-69
2021/03/25 08:50:31;;;;;;;4.75;3.67;;;;;;;8.24;33.03;100434.41;1799058;79;21055;-75
2021/03/25 08:53:08;;;;;;;7.17;3.62;;;;;;;8.30;33.47;100431.57;1767558;79;20997;-73
2021/03/25 08:55:38;;;;;;;10.53;4.30;;;;;;;8.33;33.40;100434.53;1807152;79;21590;-72
2021/03/25 08:58:20;;;;;;;7.00;4.40;;;;;;;8.33;33.78;100428.05;1794064;79;20997;-72
2021/03/25 09:00:53;;;;;;;8.10;4.20;;;;;;;8.34;33.64;100429.28;1799623;78;21198;-73
2021/03/25 09:03:35;;;;;;;6.15;4.10;;;;;;;8.31;33.72;100425.48;1793717;77;21044;-72
2021/03/25 09:06:21;;;;;;;7.55;4.67;;;;;;;8.26;32.83;100434.35;1763878;79;21064;-73
2021/03/25 09:09:36;;;;;;;10.78;5.72;;;;;;;8.09;32.97;100431.56;1798217;79;21594;-76
2021/03/25 09:12:18;;;;;;;9.45;4.40;;;;;;;7.91;32.91;100434.00;1793502;77;20990;-77
2021/03/25 09:14:46;;;;;;;7.25;4.08;;;;;;;7.71;32.72;100435.20;1772956;79;22097;-73
2021/03/25 09:17:19;;;;;;;8.53;4.00;;;;;;;7.49;31.93;100427.85;1794440;79;21571;-73
2021/03/25 09:19:50;;;;;;;4.00;3.37;;;;;;;7.28;32.54;100425.59;1796751;77;21317;-76
2021/03/25 09:22:52;;;;;;;8.78;4.05;;;;;;;7.11;33.29;100429.25;1779468;79;21607;-75
2021/03/25 09:25:37;;;;;;;6.00;4.17;;;;;;;6.99;33.28;100431.37;1796000;77;21347;-71
2021/03/25 09:28:18;;;;;;;4.87;3.70;;;;;;;6.87;34.02;100422.72;1797301;77;21548;-72
2021/03/25 09:31:11;;;;;;;8.48;4.70;;;;;;;6.82;33.60;100430.25;1790072;79;21064;-74
2021/03/25 09:33:48;;;;;;;5.62;3.87;;;;;;;6.77;34.04;100424.41;1799167;79;20942;-69
2021/03/25 09:36:35;;;;;;;4.80;3.62;;;;;;;6.68;33.38;100424.27;1792509;79;21078;-71
2021/03/25 09:39:36;;;;;;;8.55;4.20;;;;;;;6.56;33.98;100425.52;1800140;77;21151;-73
2021/03/25 09:42:21;;;;;;;4.90;3.85;;;;;;;6.50;34.89;100424.88;1802401;78;20985;-73
2021/03/25 09:44:53;;;;;;;7.47;4.30;;;;;;;6.49;35.07;100414.13;1792987;78;21191;-76
2021/03/25 09:47:36;;;;;;;7.33;5.62;;;;;;;6.49;35.71;100414.13;1735613;80;21053;-76
2021/03/25 09:50:22;;;;;;;8.33;5.97;;;;;;;6.49;35.69;100414.13;1780200;79;21100;-72
2021/03/25 09:53:20;;;;;;;6.83;5.17;;;;;;;6.51;35.55;100408.01;1732596;80;21112;-67
2021/03/25 09:56:20;;;;;;;7.72;4.40;;;;;;;6.54;35.99;100404.03;1692654;83;21450;-71
2021/03/25 09:58:51;;;;;;;7.45;6.35;;;;;;;6.60;35.24;100405.56;1732488;82;21143;-73
2021/03/25 10:01:51;;;;;;;17.10;5.28;;;;;;;6.57;34.97;100409.55;1787739;78;21054;-74
2021/03/25 10:04:37;;;;;;;6.28;4.85;;;;;;;6.54;34.74;100404.48;1790278;79;20887;-81
2021/03/25 10:07:27;;;;;;;15.80;5.58;;;;;;;6.50;34.82;100398.56;1788729;77;21623;-74
2021/03/25 10:10:01;;;;;;;6.33;4.10;;;;;;;6.52;35.29;100404.97;1799511;78;21150;-73
2021/03/25 10:13:04;;;;;;;6.92;5.05;;;;;;;6.49;34.56;100402.48;1736331;81;23042;-75
2021/03/25 10:15:41;;;;;;;7.62;5.30;;;;;;;6.45;34.80;100393.98;1791493;79;21715;-64
2021/03/25 10:18:16;;;;;;;5.50;4.37;;;;;;;6.51;35.16;100392.48;1787137;79;21050;-80
2021/03/25 10:21:06;;;;;;;8.13;4.97;;;;;;;6.59;35.07;100386.61;1691272;82;21056;-73
2021/03/25 10:23:59;;;;;;;7.45;5.03;;;;;;;6.69;34.50;100393.61;1779976;79;21658;-77
2021/03/25 10:26:39;;;;;;;8.65;5.15;;;;;;;6.77;33.60;100376.09;1779384;79;21057;-70
2021/03/25 10:29:25;;;;;;;5.92;4.20;;;;;;;6.79;33.63;100379.91;1758230;79;21025;-70
2021/03/25 10:31:57;;;;;;;5.33;4.15;;;;;;;6.79;33.58;100383.34;1800606;79;21634;-69
2021/03/25 10:34:40;;;;;;;5.47;3.95;;;;;;;6.77;34.10;100385.59;1730517;82;21629;-68
2021/03/25 10:37:38;;;;;;;6.40;4.30;;;;;;;6.78;33.54;100382.95;1799953;79;21197;-70
2021/03/25 10:40:21;;;;;;;8.58;4.65;;;;;;;6.76;33.36;100370.52;1721848;82;20994;-66
2021/03/25 10:43:03;;;;;;;9.13;5.22;;;;;;;6.74;33.20;100370.17;1794771;79;20962;-68
2021/03/25 10:45:41;;;;;;;6.05;4.40;;;;;;;6.73;32.93;100373.20;1716792;82;21034;-69
2021/03/25 10:48:23;;;;;;;9.05;4.62;;;;;;;6.71;33.60;100372.86;1723258;82;21651;-67
2021/03/25 10:51:18;;;;;;;5.78;4.53;;;;;;;6.71;33.25;100363.36;1774879;79;21322;-71
2021/03/25 10:53:51;;;;;;;8.00;5.03;;;;;;;6.72;33.67;100357.73;1779963;79;22222;-69
2021/03/25 10:56:38;;;;;;;6.35;4.40;;;;;;;6.78;33.96;100353.64;1732190;82;20938;-70
2021/03/25 10:59:17;;;;;;;4.97;4.22;;;;;;;6.84;33.03;100356.83;1787057;79;21582;-69
2021/03/25 11:01:52;;;;;;;4.08;3.47;;;;;;;6.90;33.09;100357.06;1716689;81;21049;-69
2021/03/25 11:04:31;;;;;;;3.85;3.05;;;;;;;6.93;31.97;100348.73;1728950;82;22151;-69
2021/03/25 11:07:18;;;;;;;7.00;4.05;;;;;;;6.95;31.86;100355.16;1779345;79;21060;-70
2021/03/25 11:09:59;;;;;;;10.63;3.95;;;;;;;6.95;32.38;100346.94;1733429;80;21058;-72
2021/03/25 11:12:32;;;;;;;9.28;5.50;;;;;;;6.95;32.33;100353.41;1745647;81;21634;-69
2021/03/25 11:15:25;;;;;;;6.17;4.40;;;;;;;6.99;31.89;100356.28;1746040;81;21128;-71
2021/03/25 11:17:53;;;;;;;6.20;4.40;;;;;;;7.01;31.43;100361.41;1804768;78;21471;-70
2021/03/25 11:20:26;;;;;;;6.17;4.75;;;;;;;7.01;31.67;100343.28;1805594;79;21120;-70
2021/03/25 11:22:56;;;;;;;7.10;4.40;;;;;;;7.02;31.62;100338.50;1776527;79;21531;-68
2021/03/25 11:25:29;;;;;;;5.47;3.62;;;;;;;7.07;31.63;100339.63;1773174;80;21124;-68
2021/03/25 11:28:04;;;;;;;3.92;3.42;;;;;;;7.11;30.91;100338.62;1787328;79;21180;-69
2021/03/25 11:30:42;;;;;;;5.95;3.45;;;;;;;7.11;30.75;100335.58;1778384;78;21177;-70
2021/03/25 11:33:25;;;;;;;;;;;;;;;7.10;30.82;100327.42;1740726;81;21077;-68
2021/03/25 11:35:55;;;;;;;5.15;3.72;;;;;;;7.13;30.69;100313.06;1728683;82;20223;-69
2021/03/25 11:38:34;;;;;;;4.15;3.30;;;;;;;7.18;29.97;100330.57;1796183;79;21104;-70
2021/03/25 11:41:15;;;;;;;5.60;3.30;;;;;;;7.20;29.91;100324.01;1777231;79;21049;-71
2021/03/25 11:44:01;;;;;;;4.00;3.25;;;;;;;7.22;30.48;100323.05;1732234;79;22026;-68
2021/03/25 11:46:45;;;;;;;5.35;3.75;;;;;;;7.25;29.85;100319.50;1788270;79;21037;-70
2021/03/25 11:49:17;;;;;;;13.70;5.72;;;;;;;7.27;30.61;100312.06;1760363;79;21121;-69
2021/03/25 11:51:58;;;;;;;5.05;4.17;;;;;;;7.33;32.15;100318.31;1728142;82;21025;-67
2021/03/25 11:54:34;;;;;;;10.68;4.30;;;;;;;7.38;31.96;100315.55;1708098;82;21092;-67
2021/03/25 11:57:27;;;;;;;6.28;4.03;;;;;;;7.46;31.37;100317.85;1722782;82;21420;-69
2021/03/25 12:00:13;;;;;;;7.15;4.10;;;;;;;7.48;30.74;100311.70;1790204;78;21057;-70
2021/03/25 12:02:43;;;;;;;6.70;2.95;;;;;;;7.49;30.96;100314.69;1788998;78;21025;-69
2021/03/25 12:05:38;;;;;;;8.23;3.90;;;;;;;7.52;29.52;100302.06;1755512;79;21053;-67
2021/03/25 12:08:22;;;;;;;4.10;3.40;;;;;;;7.55;30.00;100304.55;1786652;79;21052;-71
2021/03/25 12:11:06;;;;;;;3.30;2.70;;;;;;;7.56;30.57;100303.19;1783300;79;21412;-71
2021/03/25 12:13:37;;;;;;;7.00;3.00;;;;;;;7.57;29.92;100295.80;1724604;81;21104;-71
2021/03/25 12:16:08;;;;;;;3.25;2.75;;;;;;;7.59;30.06;100300.47;1708037;82;21030;-73
2021/03/25 12:18:41;;;;;;;3.70;2.87;;;;;;;7.60;29.18;100299.54;1701302;83;21077;-72
2021/03/25 12:21:10;;;;;;;3.30;2.83;;;;;;;7.62;29.13;100290.41;1715033;82;21367;-69
2021/03/25 12:23:41;;;;;;;4.30;3.20;;;;;;;7.64;28.55;100290.74;1728196;82;21208;-70
2021/03/25 12:26:14;;;;;;;3.98;3.20;;;;;;;7.65;28.94;100287.70;1791951;79;21586;-70
2021/03/25 12:28:43;;;;;;;8.58;3.52;;;;;;;7.66;29.83;100290.69;1729920;81;21095;-71
2021/03/25 12:31:18;;;;;;;4.55;2.98;;;;;;;7.69;29.47;100290.56;1784192;78;21013;-72
2021/03/25 12:33:50;;;;;;;3.60;3.08;;;;;;;7.71;30.08;100283.56;1778860;78;21065;-69
2021/03/25 12:36:19;;;;;;;5.42;3.45;;;;;;;7.76;29.64;100295.89;1782121;78;21196;-68
2021/03/25 12:38:49;;;;;;;3.83;3.12;;;;;;;7.79;28.85;100284.56;1785184;79;21075;-70
2021/03/25 12:41:37;;;;;;;4.72;2.70;;;;;;;7.81;29.42;100290.08;1757378;79;21029;-69